Rechercher aéroport 
image banner adimage banner ad
image banner ad

SVWQ - El Pardillero

Situé à Barinas, Venezuela

ICAO - , IATA -

Données fournies par Airmate  

Information générale

Coordonnées: N8°31'60" W69°40'0"
Élévation : feet MSL.
 
Voir autres Aéroports à Barinas

Données opérationnelles

Accessible au public
Heure actuelle UTC:
Heure actuelle locale:
Météo à : SVGU - Guanare Ntl ( 56 km )
METAR: SVGU 290002Z AUTO 20001KT NCD 25/23 Q1009
Voir NOTAMs / SUP AIP / TFR affectant cet aéroport [VIEW]
Fréquences de communication: [VIEW]

Pistes:

Identifiant RWYQFULongueur (ft)Largeur (ft)SurfaceLDA (ft)
1600
3400

Coordonnées de l'aéroport

Adresse: Barinas Venezuela

Vue satellite de SVWQ